sensor_id;sensor_type;location;lat;lon;timestamp;pressure;altitude;pressure_sealevel;temperature;humidity
9969;BME280;5025;48.890;9.278;2022-11-02T00:01:28;99406.75;;;10.27;76.17
9969;BME280;5025;48.890;9.278;2022-11-02T00:03:55;99413.41;;;10.25;76.34
9969;BME280;5025;48.890;9.278;2022-11-02T00:06:20;99417.13;;;10.23;76.24
9969;BME280;5025;48.890;9.278;2022-11-02T00:08:45;99422.72;;;10.22;76.33
9969;BME280;5025;48.890;9.278;2022-11-02T00:11:11;99423.16;;;10.19;76.27
9969;BME280;5025;48.890;9.278;2022-11-02T00:13:36;99420.66;;;10.17;76.56
9969;BME280;5025;48.890;9.278;2022-11-02T00:16:03;99419.44;;;10.13;76.29
9969;BME280;5025;48.890;9.278;2022-11-02T00:18:31;99421.50;;;10.11;76.45
9969;BME280;5025;48.890;9.278;2022-11-02T00:20:57;99423.19;;;10.12;76.54
9969;BME280;5025;48.890;9.278;2022-11-02T00:23:23;99421.72;;;10.10;76.31
9969;BME280;5025;48.890;9.278;2022-11-02T00:25:49;99417.78;;;10.05;76.43
9969;BME280;5025;48.890;9.278;2022-11-02T00:28:16;99424.84;;;10.07;76.53
9969;BME280;5025;48.890;9.278;2022-11-02T00:30:42;99433.13;;;10.05;76.38
9969;BME280;5025;48.890;9.278;2022-11-02T00:33:08;99423.41;;;10.04;76.45
9969;BME280;5025;48.890;9.278;2022-11-02T00:35:33;99435.22;;;10.03;76.44
9969;BME280;5025;48.890;9.278;2022-11-02T00:37:59;99427.13;;;10.03;76.38
9969;BME280;5025;48.890;9.278;2022-11-02T00:40:24;99424.84;;;10.00;76.20
9969;BME280;5025;48.890;9.278;2022-11-02T00:42:50;99429.84;;;9.96;76.40
9969;BME280;5025;48.890;9.278;2022-11-02T00:45:15;99431.50;;;9.91;76.46
9969;BME280;5025;48.890;9.278;2022-11-02T00:47:40;99429.81;;;9.90;76.81
9969;BME280;5025;48.890;9.278;2022-11-02T00:50:06;99427.34;;;9.88;76.61
9969;BME280;5025;48.890;9.278;2022-11-02T00:52:32;99436.91;;;9.91;76.56
9969;BME280;5025;48.890;9.278;2022-11-02T00:54:57;99433.59;;;9.89;76.66
9969;BME280;5025;48.890;9.278;2022-11-02T00:57:22;99432.72;;;9.88;76.61
9969;BME280;5025;48.890;9.278;2022-11-02T00:59:48;99433.59;;;9.89;76.41
9969;BME280;5025;48.890;9.278;2022-11-02T01:02:13;99434.63;;;9.87;76.60
9969;BME280;5025;48.890;9.278;2022-11-02T01:04:38;99440.22;;;9.86;76.52
9969;BME280;5025;48.890;9.278;2022-11-02T01:07:04;99440.41;;;9.84;76.43
9969;BME280;5025;48.890;9.278;2022-11-02T01:09:29;99433.34;;;9.83;76.48
9969;BME280;5025;48.890;9.278;2022-11-02T01:11:55;99441.66;;;9.82;76.68
9969;BME280;5025;48.890;9.278;2022-11-02T01:14:20;99436.69;;;9.79;76.54
9969;BME280;5025;48.890;9.278;2022-11-02T01:16:46;99433.16;;;9.78;76.58
9969;BME280;5025;48.890;9.278;2022-11-02T01:19:12;99435.25;;;9.76;76.49
9969;BME280;5025;48.890;9.278;2022-11-02T01:21:37;99439.38;;;9.72;76.42
9969;BME280;5025;48.890;9.278;2022-11-02T01:24:03;99434.81;;;9.73;76.71
9969;BME280;5025;48.890;9.278;2022-11-02T01:26:28;99430.47;;;9.72;76.79
9969;BME280;5025;48.890;9.278;2022-11-02T01:28:54;99426.94;;;9.71;76.56
9969;BME280;5025;48.890;9.278;2022-11-02T01:31:19;99432.31;;;9.71;76.78
9969;BME280;5025;48.890;9.278;2022-11-02T01:33:45;99425.28;;;9.70;76.83
9969;BME280;5025;48.890;9.278;2022-11-02T01:36:12;99426.09;;;9.71;77.04
9969;BME280;5025;48.890;9.278;2022-11-02T01:38:38;99431.91;;;9.74;76.68
9969;BME280;5025;48.890;9.278;2022-11-02T01:41:04;99417.81;;;9.72;76.98
9969;BME280;5025;48.890;9.278;2022-11-02T01:43:33;99423.19;;;9.72;77.07
9969;BME280;5025;48.890;9.278;2022-11-02T01:46:11;99418.22;;;9.69;76.78
9969;BME280;5025;48.890;9.278;2022-11-02T01:51:12;99429.81;;;9.69;76.97
9969;BME280;5025;48.890;9.278;2022-11-02T01:53:42;99424.03;;;9.66;77.31
9969;BME280;5025;48.890;9.278;2022-11-02T01:56:10;99426.72;;;9.66;77.23
9969;BME280;5025;48.890;9.278;2022-11-02T01:58:37;99423.22;;;9.65;77.09
9969;BME280;5025;48.890;9.278;2022-11-02T02:01:02;99415.72;;;9.67;77.16
9969;BME280;5025;48.890;9.278;2022-11-02T02:03:29;99407.44;;;9.69;77.13
9969;BME280;5025;48.890;9.278;2022-11-02T02:05:59;99400.16;;;9.69;77.28
9969;BME280;5025;48.890;9.278;2022-11-02T02:08:26;99403.72;;;9.70;77.28
9969;BME280;5025;48.890;9.278;2022-11-02T02:10:56;99395.41;;;9.72;77.22
9969;BME280;5025;48.890;9.278;2022-11-02T02:13:21;99391.25;;;9.69;77.41
9969;BME280;5025;48.890;9.278;2022-11-02T02:16:27;99390.41;;;9.75;77.53
9969;BME280;5025;48.890;9.278;2022-11-02T02:18:59;99376.72;;;9.77;nan
9969;BME280;5025;48.890;9.278;2022-11-02T02:27:04;99375.44;;;9.93;77.97
9969;BME280;5025;48.890;9.278;2022-11-02T02:32:39;99378.97;;;10.00;78.35
9969;BME280;5025;48.890;9.278;2022-11-02T02:35:14;99371.69;;;10.00;78.53
9969;BME280;5025;48.890;9.278;2022-11-02T02:37:53;99372.75;;;10.06;78.92
9969;BME280;5025;48.890;9.278;2022-11-02T02:40:56;99367.53;;;10.11;78.93
9969;BME280;5025;48.890;9.278;2022-11-02T02:45:44;99364.19;;;10.22;78.90
9969;BME280;5025;48.890;9.278;2022-11-02T02:48:18;99365.22;;;10.21;79.05
9969;BME280;5025;48.890;9.278;2022-11-02T02:50:49;99372.09;;;10.24;79.07
9969;BME280;5025;48.890;9.278;2022-11-02T02:53:19;99371.88;;;10.26;79.21
9969;BME280;5025;48.890;9.278;2022-11-02T02:55:47;99368.34;;;10.18;79.07
9969;BME280;5025;48.890;9.278;2022-11-02T02:58:23;99362.78;;;10.13;79.38
9969;BME280;5025;48.890;9.278;2022-11-02T03:00:51;99367.53;;;10.11;79.24
9969;BME280;5025;48.890;9.278;2022-11-02T03:03:23;99367.53;;;10.11;79.20
9969;BME280;5025;48.890;9.278;2022-11-02T03:08:39;99361.94;;;10.13;79.26
9969;BME280;5025;48.890;9.278;2022-11-02T03:11:16;99365.47;;;10.13;79.38
9969;BME280;5025;48.890;9.278;2022-11-02T03:14:11;99355.88;;;10.17;79.24
9969;BME280;5025;48.890;9.278;2022-11-02T03:16:41;99358.59;;;10.17;79.20
9969;BME280;5025;48.890;9.278;2022-11-02T03:19:38;99361.72;;;10.21;79.34
9969;BME280;5025;48.890;9.278;2022-11-02T03:25:07;99371.88;;;10.26;79.22
9969;BME280;5025;48.890;9.278;2022-11-02T03:28:09;99368.75;;;10.29;79.29
9969;BME280;5025;48.890;9.278;2022-11-02T03:30:41;99366.88;;;10.29;79.16
9969;BME280;5025;48.890;9.278;2022-11-02T03:33:29;99375.56;;;10.31;79.21
9969;BME280;5025;48.890;9.278;2022-11-02T03:36:19;99382.25;;;10.35;79.41
9969;BME280;5025;48.890;9.278;2022-11-02T03:38:55;99375.81;;;10.36;79.37
9969;BME280;5025;48.890;9.278;2022-11-02T03:41:23;99375.81;;;10.36;79.46
9969;BME280;5025;48.890;9.278;2022-11-02T03:43:53;99367.72;;;10.36;79.50
9969;BME280;5025;48.890;9.278;2022-11-02T03:46:21;99369.56;;;10.36;79.53
9969;BME280;5025;48.890;9.278;2022-11-02T03:48:49;99376.03;;;10.35;79.63
9969;BME280;5025;48.890;9.278;2022-11-02T03:51:19;99371.03;;;10.32;79.57
9969;BME280;5025;48.890;9.278;2022-11-02T03:53:58;99374.75;;;10.31;79.79
9969;BME280;5025;48.890;9.278;2022-11-02T03:56:45;99382.25;;;10.29;79.78
9969;BME280;5025;48.890;9.278;2022-11-02T03:59:11;99384.94;;;10.29;79.81
9969;BME280;5025;48.890;9.278;2022-11-02T04:01:48;99382.47;;;10.27;79.84
9969;BME280;5025;48.890;9.278;2022-11-02T04:04:15;99379.13;;;10.25;79.88
9969;BME280;5025;48.890;9.278;2022-11-02T04:06:41;99388.50;;;10.22;80.06
9969;BME280;5025;48.890;9.278;2022-11-02T04:09:08;99392.66;;;10.18;79.92
9969;BME280;5025;48.890;9.278;2022-11-02T04:11:35;99383.72;;;10.11;80.13
9969;BME280;5025;48.890;9.278;2022-11-02T04:14:18;99388.72;;;10.08;80.25
9969;BME280;5025;48.890;9.278;2022-11-02T04:17:03;99388.31;;;10.11;80.08
9969;BME280;5025;48.890;9.278;2022-11-02T04:19:48;99389.53;;;10.08;80.08
9969;BME280;5025;48.890;9.278;2022-11-02T04:22:13;99398.69;;;10.07;80.01
9969;BME280;5025;48.890;9.278;2022-11-02T04:24:57;99392.06;;;10.03;80.14
9969;BME280;5025;48.890;9.278;2022-11-02T04:27:43;99393.94;;;10.02;80.18
9969;BME280;5025;48.890;9.278;2022-11-02T04:30:09;99397.44;;;10.03;80.33
9969;BME280;5025;48.890;9.278;2022-11-02T04:32:39;99404.91;;;10.08;80.01
9969;BME280;5025;48.890;9.278;2022-11-02T04:35:23;99398.69;;;10.07;80.19
9969;BME280;5025;48.890;9.278;2022-11-02T04:37:51;99402.44;;;10.06;80.11
9969;BME280;5025;48.890;9.278;2022-11-02T04:40:35;99404.09;;;10.07;80.26
9969;BME280;5025;48.890;9.278;2022-11-02T04:43:00;99402.44;;;10.06;80.34
9969;BME280;5025;48.890;9.278;2022-11-02T04:45:26;99400.53;;;10.07;80.41
9969;BME280;5025;48.890;9.278;2022-11-02T04:47:51;99402.22;;;10.08;80.17
9969;BME280;5025;48.890;9.278;2022-11-02T04:50:17;99398.69;;;10.07;80.42
9969;BME280;5025;48.890;9.278;2022-11-02T04:52:42;99407.41;;;10.09;80.43
9969;BME280;5025;48.890;9.278;2022-11-02T04:55:08;99404.91;;;10.08;80.36
9969;BME280;5025;48.890;9.278;2022-11-02T04:57:33;99407.63;;;10.08;80.55
9969;BME280;5025;48.890;9.278;2022-11-02T04:59:58;99414.25;;;10.05;80.50
9969;BME280;5025;48.890;9.278;2022-11-02T05:02:24;99419.03;;;10.03;80.50
9969;BME280;5025;48.890;9.278;2022-11-02T05:04:49;99419.44;;;10.00;80.62
9969;BME280;5025;48.890;9.278;2022-11-02T05:07:14;99413.25;;;9.99;80.67
9969;BME280;5025;48.890;9.278;2022-11-02T05:09:40;99418.19;;;9.96;80.80
9969;BME280;5025;48.890;9.278;2022-11-02T05:12:06;99418.19;;;9.96;80.66
9969;BME280;5025;48.890;9.278;2022-11-02T05:14:32;99418.63;;;9.93;80.70
9969;BME280;5025;48.890;9.278;2022-11-02T05:16:57;99420.72;;;9.91;80.96
9969;BME280;5025;48.890;9.278;2022-11-02T05:19:23;99426.09;;;9.91;80.88
9969;BME280;5025;48.890;9.278;2022-11-02T05:21:49;99424.22;;;9.91;80.77
9969;BME280;5025;48.890;9.278;2022-11-02T05:24:14;99420.72;;;9.91;80.88
9969;BME280;5025;48.890;9.278;2022-11-02T05:26:40;99422.59;;;9.90;80.85
9969;BME280;5025;48.890;9.278;2022-11-02T05:29:06;99434.19;;;9.91;81.03
9969;BME280;5025;48.890;9.278;2022-11-02T05:31:31;99429.81;;;9.90;80.89
9969;BME280;5025;48.890;9.278;2022-11-02T05:33:57;99427.78;;;9.92;81.06
9969;BME280;5025;48.890;9.278;2022-11-02T05:36:22;99437.50;;;9.93;81.18
9969;BME280;5025;48.890;9.278;2022-11-02T05:38:51;99436.69;;;9.92;81.05
9969;BME280;5025;48.890;9.278;2022-11-02T05:41:18;99429.63;;;9.91;80.97
9969;BME280;5025;48.890;9.278;2022-11-02T05:43:43;99431.50;;;9.91;81.13
9969;BME280;5025;48.890;9.278;2022-11-02T05:46:08;99431.50;;;9.91;81.26
9969;BME280;5025;48.890;9.278;2022-11-02T05:48:34;99435.22;;;9.90;81.27
9969;BME280;5025;48.890;9.278;2022-11-02T05:51:03;99432.72;;;9.88;81.41
9969;BME280;5025;48.890;9.278;2022-11-02T05:53:29;99426.53;;;9.87;81.27
9969;BME280;5025;48.890;9.278;2022-11-02T05:55:59;99422.16;;;9.86;81.26
9969;BME280;5025;48.890;9.278;2022-11-02T05:58:25;99432.34;;;9.84;81.74
9969;BME280;5025;48.890;9.278;2022-11-02T06:00:51;99438.75;;;9.83;81.31
9969;BME280;5025;48.890;9.278;2022-11-02T06:03:16;99437.53;;;9.79;81.76
9969;BME280;5025;48.890;9.278;2022-11-02T06:05:42;99450.78;;;9.74;81.58
9969;BME280;5025;48.890;9.278;2022-11-02T06:08:07;99449.97;;;9.74;81.79
9969;BME280;5025;48.890;9.278;2022-11-02T06:10:32;99446.84;;;9.70;81.51
9969;BME280;5025;48.890;9.278;2022-11-02T06:12:59;99457.41;;;9.65;81.64
9969;BME280;5025;48.890;9.278;2022-11-02T06:15:27;99447.03;;;9.62;81.89
9969;BME280;5025;48.890;9.278;2022-11-02T06:17:53;99459.50;;;9.56;82.07
9969;BME280;5025;48.890;9.278;2022-11-02T06:20:18;99467.38;;;9.58;82.08
9969;BME280;5025;48.890;9.278;2022-11-02T06:22:44;99466.13;;;9.54;82.21
9969;BME280;5025;48.890;9.278;2022-11-02T06:25:10;99472.53;;;9.52;82.21
9969;BME280;5025;48.890;9.278;2022-11-02T06:27:36;99478.34;;;9.49;82.37
9969;BME280;5025;48.890;9.278;2022-11-02T06:30:02;99478.34;;;9.49;82.58
9969;BME280;5025;48.890;9.278;2022-11-02T06:32:28;99475.88;;;9.55;82.65
9969;BME280;5025;48.890;9.278;2022-11-02T06:34:54;99478.78;;;9.60;82.46
9969;BME280;5025;48.890;9.278;2022-11-02T06:37:19;99482.09;;;9.62;82.60
9969;BME280;5025;48.890;9.278;2022-11-02T06:39:45;99489.97;;;9.63;82.38
9969;BME280;5025;48.890;9.278;2022-11-02T06:42:10;99493.31;;;9.65;82.40
9969;BME280;5025;48.890;9.278;2022-11-02T06:44:36;99498.72;;;9.65;82.17
9969;BME280;5025;48.890;9.278;2022-11-02T06:47:01;99504.13;;;9.65;82.53
9969;BME280;5025;48.890;9.278;2022-11-02T06:49:26;99508.69;;;9.72;82.32
9969;BME280;5025;48.890;9.278;2022-11-02T06:51:52;99515.31;;;9.76;82.29
9969;BME280;5025;48.890;9.278;2022-11-02T06:54:17;99528.19;;;9.80;82.04
9969;BME280;5025;48.890;9.278;2022-11-02T06:56:42;99522.16;;;9.85;82.34
9969;BME280;5025;48.890;9.278;2022-11-02T06:59:08;99532.13;;;9.91;82.20
9969;BME280;5025;48.890;9.278;2022-11-02T07:01:33;99545.44;;;9.93;82.44
9969;BME280;5025;48.890;9.278;2022-11-02T07:04:00;99546.28;;;10.00;82.54
9969;BME280;5025;48.890;9.278;2022-11-02T07:06:25;99545.44;;;10.06;82.33
9969;BME280;5025;48.890;9.278;2022-11-02T07:08:51;99557.09;;;10.13;82.57
9969;BME280;5025;48.890;9.278;2022-11-02T07:11:16;99556.25;;;10.19;82.38
9969;BME280;5025;48.890;9.278;2022-11-02T07:13:42;99563.75;;;10.24;82.30
9969;BME280;5025;48.890;9.278;2022-11-02T07:16:08;99560.63;;;10.27;82.24
9969;BME280;5025;48.890;9.278;2022-11-02T07:18:33;99575.19;;;10.33;82.17
9969;BME280;5025;48.890;9.278;2022-11-02T07:20:58;99579.72;;;10.32;82.50
9969;BME280;5025;48.890;9.278;2022-11-02T07:23:24;99576.19;;;10.32;82.51
9969;BME280;5025;48.890;9.278;2022-11-02T07:25:49;99570.63;;;10.33;82.67
9969;BME280;5025;48.890;9.278;2022-11-02T07:28:15;99584.13;;;10.40;82.49
9969;BME280;5025;48.890;9.278;2022-11-02T07:30:40;99587.22;;;10.44;82.54
9969;BME280;5025;48.890;9.278;2022-11-02T07:33:06;99586.41;;;10.36;82.87
9969;BME280;5025;48.890;9.278;2022-11-02T07:35:31;99591.81;;;10.36;83.06
9969;BME280;5025;48.890;9.278;2022-11-02T07:38:03;99591.19;;;10.41;82.89
9969;BME280;5025;48.890;9.278;2022-11-02T07:40:30;99592.63;;;10.44;82.93
9969;BME280;5025;48.890;9.278;2022-11-02T07:42:57;99591.59;;;10.45;83.17
9969;BME280;5025;48.890;9.278;2022-11-02T07:45:23;99583.91;;;10.48;83.10
9969;BME280;5025;48.890;9.278;2022-11-02T07:47:49;99586.19;;;10.51;83.21
9969;BME280;5025;48.890;9.278;2022-11-02T07:50:17;99582.03;;;10.55;83.14
9969;BME280;5025;48.890;9.278;2022-11-02T07:52:47;99590.31;;;10.61;83.02
9969;BME280;5025;48.890;9.278;2022-11-02T07:55:15;99589.91;;;10.64;82.86
9969;BME280;5025;48.890;9.278;2022-11-02T07:57:41;99592.59;;;10.64;82.96
9969;BME280;5025;48.890;9.278;2022-11-02T08:00:09;99597.38;;;10.68;82.78
9969;BME280;5025;48.890;9.278;2022-11-02T08:02:34;99591.16;;;10.74;83.02
9969;BME280;5025;48.890;9.278;2022-11-02T08:05:00;99595.72;;;10.81;83.07
9969;BME280;5025;48.890;9.278;2022-11-02T08:07:25;99597.16;;;10.83;82.81
9969;BME280;5025;48.890;9.278;2022-11-02T08:09:50;99585.72;;;10.88;83.03
9969;BME280;5025;48.890;9.278;2022-11-02T08:12:15;99584.88;;;10.94;82.86
9969;BME280;5025;48.890;9.278;2022-11-02T08:14:41;99590.47;;;10.99;82.71
9969;BME280;5025;48.890;9.278;2022-11-02T08:17:07;99595.03;;;11.05;82.89
9969;BME280;5025;48.890;9.278;2022-11-02T08:19:32;99592.53;;;11.10;82.76
9969;BME280;5025;48.890;9.278;2022-11-02T08:21:57;99597.94;;;11.17;82.76
9969;BME280;5025;48.890;9.278;2022-11-02T08:24:23;99598.09;;;11.22;82.72
9969;BME280;5025;48.890;9.278;2022-11-02T08:26:48;99595.59;;;11.27;82.57
9969;BME280;5025;48.890;9.278;2022-11-02T08:29:13;99604.50;;;11.35;82.69
9969;BME280;5025;48.890;9.278;2022-11-02T08:31:39;99596.16;;;11.43;82.65
9969;BME280;5025;48.890;9.278;2022-11-02T08:34:04;99595.28;;;11.49;82.75
9969;BME280;5025;48.890;9.278;2022-11-02T08:36:29;99587.38;;;11.54;82.48
9969;BME280;5025;48.890;9.278;2022-11-02T08:38:55;99592.38;;;11.57;82.34
9969;BME280;5025;48.890;9.278;2022-11-02T08:41:20;99596.91;;;11.63;82.51
9969;BME280;5025;48.890;9.278;2022-11-02T08:43:45;99593.56;;;11.68;82.43
9969;BME280;5025;48.890;9.278;2022-11-02T08:46:11;99599.97;;;11.74;82.51
9969;BME280;5025;48.890;9.278;2022-11-02T08:48:36;99604.72;;;11.78;82.47
9969;BME280;5025;48.890;9.278;2022-11-02T08:51:01;99600.34;;;11.84;82.76
9969;BME280;5025;48.890;9.278;2022-11-02T08:53:27;99594.28;;;11.89;82.59
9969;BME280;5025;48.890;9.278;2022-11-02T08:55:56;99594.06;;;11.90;82.29
9969;BME280;5025;48.890;9.278;2022-11-02T08:58:22;99601.78;;;11.93;82.30
9969;BME280;5025;48.890;9.278;2022-11-02T09:00:48;99606.97;;;11.95;82.33
9969;BME280;5025;48.890;9.278;2022-11-02T09:03:14;99605.69;;;11.97;81.94
9969;BME280;5025;48.890;9.278;2022-11-02T09:05:42;99600.91;;;11.99;82.35
9969;BME280;5025;48.890;9.278;2022-11-02T09:08:16;99598.81;;;12.01;82.29
9969;BME280;5025;48.890;9.278;2022-11-02T09:10:44;99600.03;;;12.06;82.24
9969;BME280;5025;48.890;9.278;2022-11-02T09:13:11;99597.50;;;12.11;82.19
9969;BME280;5025;48.890;9.278;2022-11-02T09:15:37;99597.06;;;12.14;82.22
9969;BME280;5025;48.890;9.278;2022-11-02T09:18:04;99595.56;;;12.18;82.18
9969;BME280;5025;48.890;9.278;2022-11-02T09:20:30;99601.16;;;12.23;81.91
9969;BME280;5025;48.890;9.278;2022-11-02T09:22:56;99595.31;;;12.26;81.83
9969;BME280;5025;48.890;9.278;2022-11-02T09:25:21;99595.91;;;12.28;81.81
9969;BME280;5025;48.890;9.278;2022-11-02T09:27:51;99599.03;;;12.25;81.77
9969;BME280;5025;48.890;9.278;2022-11-02T09:30:17;99597.78;;;12.28;81.61
9969;BME280;5025;48.890;9.278;2022-11-02T09:32:43;99594.41;;;12.32;81.79
9969;BME280;5025;48.890;9.278;2022-11-02T09:35:10;99598.56;;;12.35;81.70
9969;BME280;5025;48.890;9.278;2022-11-02T09:37:36;99602.09;;;12.35;81.53
9969;BME280;5025;48.890;9.278;2022-11-02T09:40:03;99607.97;;;12.32;81.70
9969;BME280;5025;48.890;9.278;2022-11-02T09:42:47;99603.34;;;12.40;81.82
9969;BME280;5025;48.890;9.278;2022-11-02T09:45:19;99614.78;;;12.42;82.00
9969;BME280;5025;48.890;9.278;2022-11-02T09:50:22;99623.84;;;12.54;81.79
9969;BME280;5025;48.890;9.278;2022-11-02T09:52:53;99623.78;;;12.61;81.60
9969;BME280;5025;48.890;9.278;2022-11-02T09:55:25;99626.50;;;12.61;81.63
9969;BME280;5025;48.890;9.278;2022-11-02T09:58:01;99631.47;;;12.64;81.69
9969;BME280;5025;48.890;9.278;2022-11-02T10:00:31;99629.59;;;12.64;81.06
9969;BME280;5025;48.890;9.278;2022-11-02T10:08:17;99629.59;;;12.64;78.76
9969;BME280;5025;48.890;9.278;2022-11-02T10:11:00;99620.81;;;12.69;78.86
9969;BME280;5025;48.890;9.278;2022-11-02T10:13:59;99623.53;;;12.69;78.46
9969;BME280;5025;48.890;9.278;2022-11-02T10:16:34;99622.00;;;12.73;77.61
9969;BME280;5025;48.890;9.278;2022-11-02T10:19:03;99619.28;;;12.73;76.67
9969;BME280;5025;48.890;9.278;2022-11-02T10:21:33;99622.41;;;12.77;76.17
9969;BME280;5025;48.890;9.278;2022-11-02T10:24:30;99615.09;;;12.77;75.01
9969;BME280;5025;48.890;9.278;2022-11-02T10:26:59;99625.13;;;12.77;73.39
9969;BME280;5025;48.890;9.278;2022-11-02T10:29:51;99610.22;;;12.86;72.31
9969;BME280;5025;48.890;9.278;2022-11-02T10:32:19;99604.19;;;12.84;71.46
9969;BME280;5025;48.890;9.278;2022-11-02T10:34:44;99609.81;;;12.82;70.03
9969;BME280;5025;48.890;9.278;2022-11-02T10:43:42;99625.72;;;12.79;69.78
9969;BME280;5025;48.890;9.278;2022-11-02T10:49:12;99624.75;;;12.91;69.58
9969;BME280;5025;48.890;9.278;2022-11-02T10:51:40;99626.97;;;13.01;69.36
9969;BME280;5025;48.890;9.278;2022-11-02T10:54:12;99621.00;;;12.93;69.08
9969;BME280;5025;48.890;9.278;2022-11-02T10:56:39;99621.81;;;12.93;69.08
9969;BME280;5025;48.890;9.278;2022-11-02T10:59:12;99619.50;;;12.97;69.12
9969;BME280;5025;48.890;9.278;2022-11-02T11:01:44;99612.53;;;13.07;69.08
9969;BME280;5025;48.890;9.278;2022-11-02T11:04:25;99608.81;;;13.20;68.85
9969;BME280;5025;48.890;9.278;2022-11-02T11:06:52;99624.56;;;13.30;68.67
9969;BME280;5025;48.890;9.278;2022-11-02T11:09:20;99609.78;;;13.26;67.99
9969;BME280;5025;48.890;9.278;2022-11-02T11:12:05;99606.03;;;13.27;67.73
9969;BME280;5025;48.890;9.278;2022-11-02T11:14:45;99603.78;;;13.42;67.60
9969;BME280;5025;48.890;9.278;2022-11-02T11:17:38;99601.63;;;13.51;67.30
9969;BME280;5025;48.890;9.278;2022-11-02T11:20:27;99604.09;;;13.53;66.97
9969;BME280;5025;48.890;9.278;2022-11-02T11:25:34;99612.25;;;13.53;66.69
9969;BME280;5025;48.890;9.278;2022-11-02T11:27:59;99621.28;;;13.47;66.45
9969;BME280;5025;48.890;9.278;2022-11-02T11:30:35;99621.88;;;13.49;66.50
9969;BME280;5025;48.890;9.278;2022-11-02T11:33:04;99615.53;;;13.55;66.20
9969;BME280;5025;48.890;9.278;2022-11-02T11:38:00;99610.53;;;13.70;64.81
9969;BME280;5025;48.890;9.278;2022-11-02T11:40:31;99603.97;;;13.78;64.33
9969;BME280;5025;48.890;9.278;2022-11-02T11:42:59;99596.00;;;13.95;63.59
9969;BME280;5025;48.890;9.278;2022-11-02T11:45:27;99604.22;;;14.07;63.44
9969;BME280;5025;48.890;9.278;2022-11-02T11:48:18;99598.31;;;14.10;62.60
9969;BME280;5025;48.890;9.278;2022-11-02T11:50:48;99582.63;;;14.24;62.47
9969;BME280;5025;48.890;9.278;2022-11-02T11:53:23;99593.88;;;14.51;62.16
9969;BME280;5025;48.890;9.278;2022-11-02T11:55:54;99588.09;;;14.59;61.72
9969;BME280;5025;48.890;9.278;2022-11-02T11:58:27;99584.47;;;14.65;61.30
9969;BME280;5025;48.890;9.278;2022-11-02T12:01:02;99575.34;;;14.60;61.19
9969;BME280;5025;48.890;9.278;2022-11-02T12:03:28;99571.34;;;14.74;60.71
9969;BME280;5025;48.890;9.278;2022-11-02T12:06:14;99565.69;;;14.87;59.77
9969;BME280;5025;48.890;9.278;2022-11-02T12:08:52;99564.16;;;14.80;58.19
9969;BME280;5025;48.890;9.278;2022-11-02T12:16:59;99565.66;;;15.11;56.99
9969;BME280;5025;48.890;9.278;2022-11-02T12:19:58;99552.84;;;15.23;56.96
9969;BME280;5025;48.890;9.278;2022-11-02T12:25:18;99556.66;;;15.51;55.92
9969;BME280;5025;48.890;9.278;2022-11-02T12:30:20;99557.78;;;15.79;54.94
9969;BME280;5025;48.890;9.278;2022-11-02T12:35:57;99548.19;;;16.22;54.07
9969;BME280;5025;48.890;9.278;2022-11-02T12:44:01;99542.38;;;16.53;52.65
9969;BME280;5025;48.890;9.278;2022-11-02T12:54:25;99537.59;;;16.09;52.72
9969;BME280;5025;48.890;9.278;2022-11-02T12:56:54;99532.41;;;16.41;52.20
9969;BME280;5025;48.890;9.278;2022-11-02T12:59:32;99531.22;;;16.54;50.82
9969;BME280;5025;48.890;9.278;2022-11-02T13:02:18;99521.69;;;16.91;50.68
9969;BME280;5025;48.890;9.278;2022-11-02T13:04:52;99511.91;;;17.39;50.40
9969;BME280;5025;48.890;9.278;2022-11-02T13:07:35;99517.41;;;17.66;49.26
9969;BME280;5025;48.890;9.278;2022-11-02T13:10:29;99513.63;;;17.72;47.12
9969;BME280;5025;48.890;9.278;2022-11-02T13:13:01;99523.38;;;17.63;46.07
9969;BME280;5025;48.890;9.278;2022-11-02T13:15:29;99516.72;;;17.54;46.63
9969;BME280;5025;48.890;9.278;2022-11-02T13:17:59;99517.50;;;18.04;46.75
9969;BME280;5025;48.890;9.278;2022-11-02T13:20:28;99512.44;;;18.23;46.02
9969;BME280;5025;48.890;9.278;2022-11-02T13:23:00;99508.75;;;18.39;45.17
9969;BME280;5025;48.890;9.278;2022-11-02T13:25:33;99507.78;;;18.18;44.01
9969;BME280;5025;48.890;9.278;2022-11-02T13:28:04;99501.38;;;18.07;44.33
9969;BME280;5025;48.890;9.278;2022-11-02T13:30:35;99500.06;;;18.10;44.56
9969;BME280;5025;48.890;9.278;2022-11-02T13:33:17;99505.81;;;18.14;44.72
9969;BME280;5025;48.890;9.278;2022-11-02T13:35:45;99504.56;;;18.26;44.70
9969;BME280;5025;48.890;9.278;2022-11-02T13:40:48;99497.34;;;18.90;43.86
9969;BME280;5025;48.890;9.278;2022-11-02T13:43:39;99505.19;;;19.50;43.56
9969;BME280;5025;48.890;9.278;2022-11-02T13:48:58;99493.22;;;19.92;42.25
9969;BME280;5025;48.890;9.278;2022-11-02T13:51:36;99491.91;;;20.05;42.31
9969;BME280;5025;48.890;9.278;2022-11-02T13:54:11;99490.78;;;20.42;42.02
9969;BME280;5025;48.890;9.278;2022-11-02T13:56:39;99480.56;;;20.78;41.72
9969;BME280;5025;48.890;9.278;2022-11-02T13:59:18;99494.44;;;21.08;41.54
9969;BME280;5025;48.890;9.278;2022-11-02T14:01:45;99494.06;;;21.35;41.38
9969;BME280;5025;48.890;9.278;2022-11-02T14:04:13;99496.72;;;21.56;40.73
9969;BME280;5025;48.890;9.278;2022-11-02T14:06:58;99496.09;;;21.69;40.43
9969;BME280;5025;48.890;9.278;2022-11-02T14:09:43;99491.81;;;21.87;40.65
9969;BME280;5025;48.890;9.278;2022-11-02T14:25:55;99492.94;;;22.20;38.98
9969;BME280;5025;48.890;9.278;2022-11-02T14:35:59;99490.78;;;22.17;38.06
9969;BME280;5025;48.890;9.278;2022-11-02T14:41:32;99496.56;;;22.16;38.05
9969;BME280;5025;48.890;9.278;2022-11-02T14:44:27;99492.78;;;22.07;37.51
9969;BME280;5025;48.890;9.278;2022-11-02T14:49:35;99490.66;;;21.98;38.28
9969;BME280;5025;48.890;9.278;2022-11-02T14:52:25;99488.78;;;21.94;38.11
9969;BME280;5025;48.890;9.278;2022-11-02T14:54:58;99477.78;;;21.44;37.50
9969;BME280;5025;48.890;9.278;2022-11-02T14:57:28;99479.00;;;21.22;37.96
9969;BME280;5025;48.890;9.278;2022-11-02T14:59:57;99482.88;;;21.21;38.06
9969;BME280;5025;48.890;9.278;2022-11-02T15:02:34;99481.78;;;21.17;38.54
9969;BME280;5025;48.890;9.278;2022-11-02T15:05:01;99484.00;;;21.15;38.77
9969;BME280;5025;48.890;9.278;2022-11-02T15:07:47;99481.84;;;21.07;38.95
9969;BME280;5025;48.890;9.278;2022-11-02T15:12:41;99469.84;;;20.82;39.34
9969;BME280;5025;48.890;9.278;2022-11-02T15:22:41;99463.09;;;20.18;40.54
9969;BME280;5025;48.890;9.278;2022-11-02T15:27:40;99455.38;;;19.63;41.60
9969;BME280;5025;48.890;9.278;2022-11-02T15:30:10;99456.16;;;19.38;42.45
9969;BME280;5025;48.890;9.278;2022-11-02T15:32:39;99464.31;;;19.17;42.56
9969;BME280;5025;48.890;9.278;2022-11-02T15:35:16;99462.31;;;18.97;43.13